sensor_id;sensor_type;location;lat;lon;timestamp;pressure;altitude;pressure_sealevel;temperature;humidity
9423;BME280;4750;49.506;10.400;2022-12-05T00:00:34;97718.44;;;3.50;98.33
9423;BME280;4750;49.506;10.400;2022-12-05T00:03:18;97680.22;;;3.25;97.98
9423;BME280;4750;49.506;10.400;2022-12-05T00:06:03;97722.25;;;3.47;98.18
9423;BME280;4750;49.506;10.400;2022-12-05T00:08:47;97722.03;;;3.39;98.23
9423;BME280;4750;49.506;10.400;2022-12-05T00:11:34;97719.53;;;3.35;98.38
9423;BME280;4750;49.506;10.400;2022-12-05T00:14:18;97693.63;;;3.10;98.30
9423;BME280;4750;49.506;10.400;2022-12-05T00:17:02;97725.84;;;3.30;98.42
9423;BME280;4750;49.506;10.400;2022-12-05T00:19:46;97735.69;;;3.31;98.35
9423;BME280;4750;49.506;10.400;2022-12-05T00:22:30;97712.78;;;3.19;98.52
9423;BME280;4750;49.506;10.400;2022-12-05T00:25:14;97719.59;;;3.18;98.36
9423;BME280;4750;49.506;10.400;2022-12-05T00:27:58;97752.31;;;3.37;98.50
9423;BME280;4750;49.506;10.400;2022-12-05T00:30:42;97735.72;;;3.14;98.64
9423;BME280;4750;49.506;10.400;2022-12-05T00:33:26;97756.13;;;3.28;98.84
9423;BME280;4750;49.506;10.400;2022-12-05T00:36:16;97746.53;;;3.29;98.80
9423;BME280;4750;49.506;10.400;2022-12-05T00:39:02;97746.03;;;3.31;98.78
9423;BME280;4750;49.506;10.400;2022-12-05T00:41:47;97719.88;;;3.03;98.65
9423;BME280;4750;49.506;10.400;2022-12-05T00:44:31;97744.03;;;3.20;98.72
9423;BME280;4750;49.506;10.400;2022-12-05T00:47:15;97772.00;;;3.33;98.86
9423;BME280;4750;49.506;10.400;2022-12-05T00:50:00;97754.91;;;3.12;98.98
9423;BME280;4750;49.506;10.400;2022-12-05T00:52:44;97750.88;;;3.07;99.05
9423;BME280;4750;49.506;10.400;2022-12-05T00:55:28;97767.22;;;3.22;98.71
9423;BME280;4750;49.506;10.400;2022-12-05T00:58:12;97771.78;;;3.20;98.95
9423;BME280;4750;49.506;10.400;2022-12-05T01:00:56;97780.56;;;3.30;98.83
9423;BME280;4750;49.506;10.400;2022-12-05T01:03:41;97782.59;;;3.29;99.09
9423;BME280;4750;49.506;10.400;2022-12-05T01:06:26;97782.34;;;3.27;98.76
9423;BME280;4750;49.506;10.400;2022-12-05T01:09:13;97742.88;;;2.87;99.14
9423;BME280;4750;49.506;10.400;2022-12-05T01:11:57;97757.97;;;2.97;98.79
9423;BME280;4750;49.506;10.400;2022-12-05T01:14:43;97788.94;;;3.18;98.81
9423;BME280;4750;49.506;10.400;2022-12-05T01:17:26;97769.78;;;3.03;99.23
9423;BME280;4750;49.506;10.400;2022-12-05T01:20:10;97765.50;;;3.08;99.25
9423;BME280;4750;49.506;10.400;2022-12-05T01:22:54;97771.06;;;3.02;99.23
9423;BME280;4750;49.506;10.400;2022-12-05T01:25:39;97804.81;;;3.23;99.04
9423;BME280;4750;49.506;10.400;2022-12-05T01:28:23;97793.25;;;3.02;99.18
9423;BME280;4750;49.506;10.400;2022-12-05T01:31:19;97774.63;;;2.86;99.17
9423;BME280;4750;49.506;10.400;2022-12-05T01:34:06;97792.75;;;2.98;99.56
9423;BME280;4750;49.506;10.400;2022-12-05T01:36:51;97773.38;;;2.64;99.48
9423;BME280;4750;49.506;10.400;2022-12-05T01:39:35;97810.91;;;2.99;99.45
9423;BME280;4750;49.506;10.400;2022-12-05T01:42:19;97800.06;;;2.90;99.42
9423;BME280;4750;49.506;10.400;2022-12-05T01:45:09;97828.28;;;3.05;99.28
9423;BME280;4750;49.506;10.400;2022-12-05T01:47:56;97792.00;;;2.81;99.64
9423;BME280;4750;49.506;10.400;2022-12-05T01:50:40;97840.91;;;3.06;99.56
9423;BME280;4750;49.506;10.400;2022-12-05T01:53:25;97823.28;;;2.87;99.81
9423;BME280;4750;49.506;10.400;2022-12-05T01:56:11;97825.25;;;2.92;99.94
9423;BME280;4750;49.506;10.400;2022-12-05T01:58:56;97818.97;;;2.86;100.00
9423;BME280;4750;49.506;10.400;2022-12-05T02:01:40;97799.84;;;2.71;99.85
9423;BME280;4750;49.506;10.400;2022-12-05T02:04:24;97792.28;;;2.60;100.00
9423;BME280;4750;49.506;10.400;2022-12-05T02:07:10;97849.47;;;2.86;100.00
9423;BME280;4750;49.506;10.400;2022-12-05T02:09:54;97762.03;;;2.28;99.72
9423;BME280;4750;49.506;10.400;2022-12-05T02:12:39;97863.34;;;2.97;99.91
9423;BME280;4750;49.506;10.400;2022-12-05T02:18:49;97862.09;;;2.98;100.00
9423;BME280;4750;49.506;10.400;2022-12-05T02:34:08;97882.25;;;3.10;100.00
9423;BME280;4750;49.506;10.400;2022-12-05T02:37:03;97851.50;;;2.80;100.00
9423;BME280;4750;49.506;10.400;2022-12-05T02:40:04;97868.88;;;2.80;100.00
9423;BME280;4750;49.506;10.400;2022-12-05T02:43:09;97796.56;;;2.38;100.00
9423;BME280;4750;49.506;10.400;2022-12-05T02:45:57;97861.81;;;2.79;100.00
9423;BME280;4750;49.506;10.400;2022-12-05T02:48:45;97820.22;;;2.51;100.00
9423;BME280;4750;49.506;10.400;2022-12-05T02:51:32;97900.63;;;2.90;100.00
9423;BME280;4750;49.506;10.400;2022-12-05T02:54:39;97906.69;;;2.89;100.00
9423;BME280;4750;49.506;10.400;2022-12-05T02:57:24;97814.63;;;2.17;100.00
9423;BME280;4750;49.506;10.400;2022-12-05T03:00:08;97837.06;;;2.19;100.00
9423;BME280;4750;49.506;10.400;2022-12-05T03:02:55;97917.28;;;2.96;100.00
9423;BME280;4750;49.506;10.400;2022-12-05T03:11:30;97911.22;;;2.92;100.00
9423;BME280;4750;49.506;10.400;2022-12-05T03:14:20;97826.00;;;2.19;100.00
9423;BME280;4750;49.506;10.400;2022-12-05T03:17:09;97880.47;;;2.67;100.00
9423;BME280;4750;49.506;10.400;2022-12-05T03:20:04;97918.56;;;3.01;100.00
9423;BME280;4750;49.506;10.400;2022-12-05T03:22:55;97913.00;;;2.95;100.00
9423;BME280;4750;49.506;10.400;2022-12-05T03:25:51;97900.41;;;3.00;100.00
9423;BME280;4750;49.506;10.400;2022-12-05T03:28:54;97864.84;;;2.87;100.00
9423;BME280;4750;49.506;10.400;2022-12-05T03:31:55;97853.78;;;2.81;99.97
9423;BME280;4750;49.506;10.400;2022-12-05T03:40:47;97881.72;;;2.89;99.51
9423;BME280;4750;49.506;10.400;2022-12-05T03:43:55;97898.13;;;2.87;99.52
9423;BME280;4750;49.506;10.400;2022-12-05T03:46:46;97868.63;;;2.50;99.54
9423;BME280;4750;49.506;10.400;2022-12-05T03:49:35;97916.53;;;2.79;99.16
9423;BME280;4750;49.506;10.400;2022-12-05T03:52:34;97891.53;;;2.45;99.37
9423;BME280;4750;49.506;10.400;2022-12-05T03:55:22;97889.50;;;2.45;99.04
9423;BME280;4750;49.506;10.400;2022-12-05T03:58:14;97953.56;;;2.70;99.31
9423;BME280;4750;49.506;10.400;2022-12-05T04:01:00;97919.22;;;2.45;99.31
9423;BME280;4750;49.506;10.400;2022-12-05T04:03:52;97955.56;;;2.69;99.33
9423;BME280;4750;49.506;10.400;2022-12-05T04:06:39;97900.25;;;2.15;99.05
9423;BME280;4750;49.506;10.400;2022-12-05T04:09:29;97908.81;;;2.17;99.12
9423;BME280;4750;49.506;10.400;2022-12-05T04:12:20;97856.88;;;1.89;98.93
9423;BME280;4750;49.506;10.400;2022-12-05T04:15:14;97976.22;;;2.63;99.13
9423;BME280;4750;49.506;10.400;2022-12-05T04:18:00;97962.03;;;2.44;99.20
9423;BME280;4750;49.506;10.400;2022-12-05T04:20:45;97920.94;;;2.25;99.26
9423;BME280;4750;49.506;10.400;2022-12-05T04:23:49;97873.69;;;1.85;98.71
9423;BME280;4750;49.506;10.400;2022-12-05T04:27:04;97900.16;;;1.92;98.56
9423;BME280;4750;49.506;10.400;2022-12-05T04:29:59;97964.28;;;2.39;98.79
9423;BME280;4750;49.506;10.400;2022-12-05T04:32:49;97975.44;;;2.56;98.63
9423;BME280;4750;49.506;10.400;2022-12-05T04:38:52;97956.44;;;2.27;98.37
9423;BME280;4750;49.506;10.400;2022-12-05T04:41:40;97982.94;;;2.45;98.25
9423;BME280;4750;49.506;10.400;2022-12-05T04:44:30;97978.63;;;2.38;98.17
9423;BME280;4750;49.506;10.400;2022-12-05T04:47:18;97993.78;;;2.37;98.16
9423;BME280;4750;49.506;10.400;2022-12-05T04:50:07;97926.00;;;1.78;97.89
9423;BME280;4750;49.506;10.400;2022-12-05T04:52:53;97994.31;;;2.47;97.94
9423;BME280;4750;49.506;10.400;2022-12-05T04:55:42;97943.47;;;1.95;97.80
9423;BME280;4750;49.506;10.400;2022-12-05T04:58:28;97985.97;;;2.35;98.03
9423;BME280;4750;49.506;10.400;2022-12-05T05:01:17;97976.31;;;2.25;97.96
9423;BME280;4750;49.506;10.400;2022-12-05T05:04:16;97973.34;;;2.34;97.60
9423;BME280;4750;49.506;10.400;2022-12-05T05:07:07;97975.09;;;2.32;97.89
9423;BME280;4750;49.506;10.400;2022-12-05T05:09:55;97969.31;;;2.30;97.46
9423;BME280;4750;49.506;10.400;2022-12-05T05:12:39;98003.31;;;2.36;97.33
9423;BME280;4750;49.506;10.400;2022-12-05T05:15:24;98015.16;;;2.36;97.54
9423;BME280;4750;49.506;10.400;2022-12-05T05:18:08;98013.13;;;2.31;97.46
9423;BME280;4750;49.506;10.400;2022-12-05T05:20:52;97983.34;;;2.15;97.13
9423;BME280;4750;49.506;10.400;2022-12-05T05:23:36;97970.97;;;2.04;97.17
9423;BME280;4750;49.506;10.400;2022-12-05T05:26:21;98009.34;;;2.29;97.13
9423;BME280;4750;49.506;10.400;2022-12-05T05:29:05;97967.66;;;2.00;97.21
9423;BME280;4750;49.506;10.400;2022-12-05T05:31:49;97976.28;;;2.14;96.98
9423;BME280;4750;49.506;10.400;2022-12-05T05:34:33;97969.91;;;1.96;97.08
9423;BME280;4750;49.506;10.400;2022-12-05T05:37:17;98023.72;;;2.33;96.74
9423;BME280;4750;49.506;10.400;2022-12-05T05:40:01;98023.94;;;2.29;97.13
9423;BME280;4750;49.506;10.400;2022-12-05T05:42:54;97989.09;;;2.11;96.40
9423;BME280;4750;49.506;10.400;2022-12-05T05:45:39;98002.69;;;2.09;96.39
9423;BME280;4750;49.506;10.400;2022-12-05T05:48:23;98016.34;;;2.18;96.43
9423;BME280;4750;49.506;10.400;2022-12-05T05:51:09;98024.72;;;2.30;96.09
9423;BME280;4750;49.506;10.400;2022-12-05T05:53:54;98018.09;;;2.16;96.38
9423;BME280;4750;49.506;10.400;2022-12-05T05:56:39;98038.03;;;2.26;96.57
9423;BME280;4750;49.506;10.400;2022-12-05T05:59:23;97995.06;;;1.98;96.43
9423;BME280;4750;49.506;10.400;2022-12-05T06:02:07;97986.16;;;1.83;96.21
9423;BME280;4750;49.506;10.400;2022-12-05T06:04:51;98002.84;;;1.94;96.09
9423;BME280;4750;49.506;10.400;2022-12-05T06:07:35;98033.16;;;2.09;95.91
9423;BME280;4750;49.506;10.400;2022-12-05T06:10:19;98024.25;;;1.94;95.93
9423;BME280;4750;49.506;10.400;2022-12-05T06:13:03;98042.50;;;2.12;96.42
9423;BME280;4750;49.506;10.400;2022-12-05T06:15:47;98038.47;;;2.13;96.00
9423;BME280;4750;49.506;10.400;2022-12-05T06:18:32;98042.50;;;2.12;96.10
9423;BME280;4750;49.506;10.400;2022-12-05T06:21:17;98026.53;;;1.95;96.20
9423;BME280;4750;49.506;10.400;2022-12-05T06:24:00;98020.00;;;1.98;96.14
9423;BME280;4750;49.506;10.400;2022-12-05T06:26:44;98029.78;;;1.94;96.13
9423;BME280;4750;49.506;10.400;2022-12-05T06:29:28;98040.44;;;2.06;95.93
9423;BME280;4750;49.506;10.400;2022-12-05T06:32:13;98012.13;;;1.85;95.97
9423;BME280;4750;49.506;10.400;2022-12-05T06:34:57;98045.94;;;2.01;95.98
9423;BME280;4750;49.506;10.400;2022-12-05T06:37:42;98057.88;;;2.13;96.27
9423;BME280;4750;49.506;10.400;2022-12-05T06:40:26;98047.47;;;2.02;96.05
9423;BME280;4750;49.506;10.400;2022-12-05T06:43:10;98042.16;;;1.98;96.03
9423;BME280;4750;49.506;10.400;2022-12-05T06:45:54;98064.34;;;2.04;95.94
9423;BME280;4750;49.506;10.400;2022-12-05T06:48:38;98046.41;;;1.94;96.07
9423;BME280;4750;49.506;10.400;2022-12-05T06:51:23;97995.13;;;1.66;95.90
9423;BME280;4750;49.506;10.400;2022-12-05T06:54:07;98066.41;;;2.15;95.75
9423;BME280;4750;49.506;10.400;2022-12-05T06:56:51;98069.97;;;2.21;95.73
9423;BME280;4750;49.506;10.400;2022-12-05T06:59:35;98023.22;;;1.91;95.65
9423;BME280;4750;49.506;10.400;2022-12-05T07:02:19;98052.75;;;2.05;95.92
9423;BME280;4750;49.506;10.400;2022-12-05T07:05:03;98056.81;;;2.04;95.70
9423;BME280;4750;49.506;10.400;2022-12-05T07:07:47;98044.13;;;1.92;95.62
9423;BME280;4750;49.506;10.400;2022-12-05T07:10:31;98043.66;;;1.99;95.53
9423;BME280;4750;49.506;10.400;2022-12-05T07:13:15;98054.28;;;2.06;95.90
9423;BME280;4750;49.506;10.400;2022-12-05T07:15:59;98042.69;;;2.02;95.64
9423;BME280;4750;49.506;10.400;2022-12-05T07:18:43;98049.50;;;2.01;95.47
9423;BME280;4750;49.506;10.400;2022-12-05T07:21:27;98064.13;;;2.08;95.39
9423;BME280;4750;49.506;10.400;2022-12-05T07:24:11;98059.34;;;2.14;95.07
9423;BME280;4750;49.506;10.400;2022-12-05T07:26:55;98063.91;;;2.17;95.25
9423;BME280;4750;49.506;10.400;2022-12-05T07:29:39;98055.88;;;2.19;95.38
9423;BME280;4750;49.506;10.400;2022-12-05T07:32:24;98074.28;;;2.22;95.11
9423;BME280;4750;49.506;10.400;2022-12-05T07:35:08;98105.09;;;2.35;94.94
9423;BME280;4750;49.506;10.400;2022-12-05T07:37:52;98074.72;;;2.15;94.64
9423;BME280;4750;49.506;10.400;2022-12-05T07:40:36;98097.03;;;2.37;94.95
9423;BME280;4750;49.506;10.400;2022-12-05T07:43:20;98093.25;;;2.40;95.08
9423;BME280;4750;49.506;10.400;2022-12-05T07:46:06;98073.84;;;2.35;94.68
9423;BME280;4750;49.506;10.400;2022-12-05T07:48:50;98071.84;;;2.35;94.60
9423;BME280;4750;49.506;10.400;2022-12-05T07:51:35;98113.00;;;2.54;94.55
9423;BME280;4750;49.506;10.400;2022-12-05T07:54:19;98087.81;;;2.57;94.71
9423;BME280;4750;49.506;10.400;2022-12-05T07:57:03;98112.88;;;2.86;94.82
9423;BME280;4750;49.506;10.400;2022-12-05T07:59:47;98100.72;;;2.72;94.79
9423;BME280;4750;49.506;10.400;2022-12-05T08:02:31;98086.91;;;2.83;94.84
9423;BME280;4750;49.506;10.400;2022-12-05T08:05:15;98082.16;;;2.89;94.34
9423;BME280;4750;49.506;10.400;2022-12-05T08:07:59;98090.50;;;2.95;94.39
9423;BME280;4750;49.506;10.400;2022-12-05T08:10:43;98096.78;;;2.90;93.80
9423;BME280;4750;49.506;10.400;2022-12-05T08:13:28;98109.63;;;2.93;93.18
9423;BME280;4750;49.506;10.400;2022-12-05T08:16:18;98133.41;;;3.17;93.04
9423;BME280;4750;49.506;10.400;2022-12-05T08:19:06;98136.94;;;3.12;92.90
9423;BME280;4750;49.506;10.400;2022-12-05T08:21:53;98121.47;;;2.88;92.85
9423;BME280;4750;49.506;10.400;2022-12-05T08:24:37;98121.78;;;3.01;92.62
9423;BME280;4750;49.506;10.400;2022-12-05T08:27:22;98127.59;;;3.09;92.22
9423;BME280;4750;49.506;10.400;2022-12-05T08:30:06;98113.16;;;2.88;91.81
9423;BME280;4750;49.506;10.400;2022-12-05T08:32:50;98138.66;;;3.03;91.62
9423;BME280;4750;49.506;10.400;2022-12-05T08:35:36;98156.38;;;3.17;91.51
9423;BME280;4750;49.506;10.400;2022-12-05T08:38:20;98150.78;;;3.06;91.06
9423;BME280;4750;49.506;10.400;2022-12-05T08:41:09;98149.31;;;3.16;91.27
9423;BME280;4750;49.506;10.400;2022-12-05T08:43:59;98099.81;;;2.98;90.89
9423;BME280;4750;49.506;10.400;2022-12-05T08:46:47;98151.31;;;3.16;91.04
9423;BME280;4750;49.506;10.400;2022-12-05T08:49:32;98170.56;;;3.31;90.85
9423;BME280;4750;49.506;10.400;2022-12-05T08:52:16;98157.31;;;3.03;90.83
9423;BME280;4750;49.506;10.400;2022-12-05T08:55:00;98165.66;;;3.08;90.69
9423;BME280;4750;49.506;10.400;2022-12-05T08:57:44;98172.38;;;2.90;90.59
9423;BME280;4750;49.506;10.400;2022-12-05T09:00:28;98192.16;;;3.09;90.59
9423;BME280;4750;49.506;10.400;2022-12-05T09:03:12;98163.88;;;3.00;90.12
9423;BME280;4750;49.506;10.400;2022-12-05T09:06:19;98203.31;;;3.21;90.18
9423;BME280;4750;49.506;10.400;2022-12-05T09:09:07;98205.59;;;3.28;89.99
9423;BME280;4750;49.506;10.400;2022-12-05T09:11:51;98195.72;;;3.21;90.08
9423;BME280;4750;49.506;10.400;2022-12-05T09:14:35;98185.16;;;3.25;90.02
9423;BME280;4750;49.506;10.400;2022-12-05T09:17:19;98191.47;;;3.32;90.03
9423;BME280;4750;49.506;10.400;2022-12-05T09:20:04;98202.38;;;3.41;89.61
9423;BME280;4750;49.506;10.400;2022-12-05T09:22:48;98211.72;;;3.49;89.97
9423;BME280;4750;49.506;10.400;2022-12-05T09:25:32;98195.75;;;3.27;89.31
9423;BME280;4750;49.506;10.400;2022-12-05T09:28:16;98199.56;;;3.35;89.82
9423;BME280;4750;49.506;10.400;2022-12-05T09:31:02;98202.41;;;3.52;89.55
9423;BME280;4750;49.506;10.400;2022-12-05T09:33:49;98182.91;;;3.35;89.56
9423;BME280;4750;49.506;10.400;2022-12-05T09:36:34;98181.66;;;3.31;89.57
9423;BME280;4750;49.506;10.400;2022-12-05T09:39:18;98159.94;;;3.23;89.17
9423;BME280;4750;49.506;10.400;2022-12-05T09:45:28;98200.66;;;3.55;89.79
9423;BME280;4750;49.506;10.400;2022-12-05T09:48:18;98177.41;;;3.47;89.89
9423;BME280;4750;49.506;10.400;2022-12-05T09:51:03;98203.44;;;3.60;90.31
9423;BME280;4750;49.506;10.400;2022-12-05T09:53:48;98173.34;;;3.36;90.41
9423;BME280;4750;49.506;10.400;2022-12-05T09:56:32;98165.78;;;3.42;90.47
9423;BME280;4750;49.506;10.400;2022-12-05T09:59:17;98195.38;;;3.74;90.62
9423;BME280;4750;49.506;10.400;2022-12-05T10:02:25;98208.47;;;3.62;90.77
9423;BME280;4750;49.506;10.400;2022-12-05T10:05:19;98197.63;;;3.64;91.25
9423;BME280;4750;49.506;10.400;2022-12-05T10:08:20;98180.69;;;3.51;91.26
9423;BME280;4750;49.506;10.400;2022-12-05T10:11:17;98212.28;;;3.65;91.15
9423;BME280;4750;49.506;10.400;2022-12-05T10:17:36;98188.03;;;3.54;91.98
9423;BME280;4750;49.506;10.400;2022-12-05T10:20:23;98207.47;;;3.65;92.06
9423;BME280;4750;49.506;10.400;2022-12-05T10:23:17;98184.97;;;3.40;91.95
9423;BME280;4750;49.506;10.400;2022-12-05T10:26:06;98208.72;;;3.64;92.16
9423;BME280;4750;49.506;10.400;2022-12-05T10:31:42;98208.47;;;3.56;92.13
9423;BME280;4750;49.506;10.400;2022-12-05T10:34:38;98215.03;;;3.59;92.72
9423;BME280;4750;49.506;10.400;2022-12-05T10:37:22;98193.78;;;3.39;92.96
9423;BME280;4750;49.506;10.400;2022-12-05T10:40:11;98216.31;;;3.64;93.02
9423;BME280;4750;49.506;10.400;2022-12-05T10:42:55;98197.34;;;3.51;93.43
9423;BME280;4750;49.506;10.400;2022-12-05T10:45:44;98221.66;;;3.73;93.45
9423;BME280;4750;49.506;10.400;2022-12-05T10:48:29;98216.06;;;3.61;93.54
9423;BME280;4750;49.506;10.400;2022-12-05T10:51:25;98220.34;;;3.68;93.77
9423;BME280;4750;49.506;10.400;2022-12-05T10:54:19;98220.63;;;3.76;93.90
9423;BME280;4750;49.506;10.400;2022-12-05T10:57:23;98225.47;;;3.98;94.40
9423;BME280;4750;49.506;10.400;2022-12-05T11:00:13;98225.97;;;3.96;94.46
9423;BME280;4750;49.506;10.400;2022-12-05T11:03:02;98200.72;;;3.83;94.42
9423;BME280;4750;49.506;10.400;2022-12-05T11:05:52;98197.66;;;3.87;94.71
9423;BME280;4750;49.506;10.400;2022-12-05T11:08:37;98188.34;;;3.84;94.50
9423;BME280;4750;49.506;10.400;2022-12-05T11:11:28;98220.91;;;3.95;94.69
9423;BME280;4750;49.506;10.400;2022-12-05T11:14:22;98202.25;;;3.90;94.92
9423;BME280;4750;49.506;10.400;2022-12-05T11:17:23;98196.19;;;3.97;95.00
9423;BME280;4750;49.506;10.400;2022-12-05T11:23:15;98212.88;;;4.03;95.05
9423;BME280;4750;49.506;10.400;2022-12-05T11:26:00;98156.00;;;3.75;95.06
9423;BME280;4750;49.506;10.400;2022-12-05T11:28:44;98206.31;;;4.17;95.21
9423;BME280;4750;49.506;10.400;2022-12-05T11:31:29;98186.06;;;4.00;95.27
9423;BME280;4750;49.506;10.400;2022-12-05T11:34:19;98202.75;;;4.11;95.00
9423;BME280;4750;49.506;10.400;2022-12-05T11:37:21;98170.94;;;4.01;94.95
9423;BME280;4750;49.506;10.400;2022-12-05T11:40:21;98194.69;;;4.19;95.01
9423;BME280;4750;49.506;10.400;2022-12-05T11:46:17;98173.47;;;4.16;94.77
9423;BME280;4750;49.506;10.400;2022-12-05T11:52:38;98175.47;;;4.32;94.90
9423;BME280;4750;49.506;10.400;2022-12-05T11:55:32;98175.47;;;4.32;94.65
9423;BME280;4750;49.506;10.400;2022-12-05T12:01:26;98184.56;;;4.55;94.59
9423;BME280;4750;49.506;10.400;2022-12-05T12:07:24;98183.03;;;4.60;94.37
9423;BME280;4750;49.506;10.400;2022-12-05T12:10:37;98125.72;;;4.17;94.03
9423;BME280;4750;49.506;10.400;2022-12-05T12:13:32;98182.00;;;4.63;93.98
9423;BME280;4750;49.506;10.400;2022-12-05T12:26:12;98181.53;;;4.36;93.41
9423;BME280;4750;49.506;10.400;2022-12-05T12:32:44;98108.03;;;3.64;93.22
9423;BME280;4750;49.506;10.400;2022-12-05T12:35:55;98177.00;;;4.22;93.02
9423;BME280;4750;49.506;10.400;2022-12-05T12:50:34;98069.88;;;3.30;92.97
9423;BME280;4750;49.506;10.400;2022-12-05T12:59:46;98125.72;;;3.66;93.29
9423;BME280;4750;49.506;10.400;2022-12-05T13:02:39;98003.69;;;2.66;92.92
9423;BME280;4750;49.506;10.400;2022-12-05T13:05:31;98085.81;;;3.52;92.84
9423;BME280;4750;49.506;10.400;2022-12-05T13:11:19;98021.94;;;3.13;93.15
9423;BME280;4750;49.506;10.400;2022-12-05T13:14:10;98049.22;;;3.42;93.27
9423;BME280;4750;49.506;10.400;2022-12-05T13:16:56;98195.94;;;4.23;93.03
9423;BME280;4750;49.506;10.400;2022-12-05T13:19:43;98170.91;;;4.29;93.03
9423;BME280;4750;49.506;10.400;2022-12-05T13:22:29;98072.19;;;3.54;93.07
9423;BME280;4750;49.506;10.400;2022-12-05T13:25:15;98180.50;;;4.22;92.85
9423;BME280;4750;49.506;10.400;2022-12-05T13:28:03;98178.50;;;4.23;92.60
9423;BME280;4750;49.506;10.400;2022-12-05T13:30:48;98120.66;;;3.65;92.23
9423;BME280;4750;49.506;10.400;2022-12-05T13:33:50;98150.97;;;3.96;92.07
9423;BME280;4750;49.506;10.400;2022-12-05T13:36:39;98019.41;;;3.15;92.08
9423;BME280;4750;49.506;10.400;2022-12-05T13:39:54;98139.63;;;3.89;91.88
9423;BME280;4750;49.506;10.400;2022-12-05T13:43:01;98151.75;;;3.86;91.90
9423;BME280;4750;49.506;10.400;2022-12-05T13:46:04;98198.47;;;4.16;91.54
9423;BME280;4750;49.506;10.400;2022-12-05T13:48:58;98193.16;;;4.18;91.82
9423;BME280;4750;49.506;10.400;2022-12-05T13:51:46;98167.38;;;3.89;91.49
9423;BME280;4750;49.506;10.400;2022-12-05T13:54:31;98173.97;;;3.97;91.33
9423;BME280;4750;49.506;10.400;2022-12-05T14:00:32;98210.31;;;3.99;91.02
9423;BME280;4750;49.506;10.400;2022-12-05T14:09:29;98193.09;;;3.72;90.93
9423;BME280;4750;49.506;10.400;2022-12-05T14:12:54;98216.38;;;3.92;90.84
9423;BME280;4750;49.506;10.400;2022-12-05T14:15:39;98182.75;;;3.67;90.68
9423;BME280;4750;49.506;10.400;2022-12-05T14:21:40;98184.25;;;3.68;91.06
9423;BME280;4750;49.506;10.400;2022-12-05T14:24:37;98199.16;;;3.76;90.64
9423;BME280;4750;49.506;10.400;2022-12-05T14:27:44;98197.91;;;3.66;90.96
9423;BME280;4750;49.506;10.400;2022-12-05T14:30:44;98162.28;;;3.48;90.65
9423;BME280;4750;49.506;10.400;2022-12-05T14:33:32;98196.38;;;3.65;90.58
9423;BME280;4750;49.506;10.400;2022-12-05T14:36:17;98201.41;;;3.61;90.20
9423;BME280;4750;49.506;10.400;2022-12-05T14:39:20;98178.13;;;3.41;90.51
9423;BME280;4750;49.506;10.400;2022-12-05T14:42:25;98202.41;;;3.52;90.15
9423;BME280;4750;49.506;10.400;2022-12-05T14:50:58;98172.56;;;3.36;91.07
9423;BME280;4750;49.506;10.400;2022-12-05T14:53:43;98212.28;;;3.59;90.99
9423;BME280;4750;49.506;10.400;2022-12-05T14:56:27;98204.66;;;3.54;91.22
9423;BME280;4750;49.506;10.400;2022-12-05T14:59:41;98192.03;;;3.53;91.23
9423;BME280;4750;49.506;10.400;2022-12-05T15:02:42;98191.06;;;3.50;91.33
9423;BME280;4750;49.506;10.400;2022-12-05T15:05:30;98207.97;;;3.64;91.45
9423;BME280;4750;49.506;10.400;2022-12-05T15:08:14;98207.22;;;3.63;91.30
9423;BME280;4750;49.506;10.400;2022-12-05T15:10:59;98183.69;;;3.41;91.52
9423;BME280;4750;49.506;10.400;2022-12-05T15:13:44;98174.31;;;3.22;91.31
9423;BME280;4750;49.506;10.400;2022-12-05T15:16:30;98186.91;;;3.23;91.47
9423;BME280;4750;49.506;10.400;2022-12-05T15:19:29;98206.16;;;3.43;91.68
9423;BME280;4750;49.506;10.400;2022-12-05T15:22:18;98168.47;;;3.14;91.72
9423;BME280;4750;49.506;10.400;2022-12-05T15:25:20;98190.47;;;3.29;91.85
9423;BME280;4750;49.506;10.400;2022-12-05T15:28:18;98220.81;;;3.50;91.89
9423;BME280;4750;49.506;10.400;2022-12-05T15:31:02;98227.84;;;3.39;91.83
9423;BME280;4750;49.506;10.400;2022-12-05T15:33:50;98218.78;;;3.44;91.98
9423;BME280;4750;49.506;10.400;2022-12-05T15:36:37;98214.66;;;3.23;92.10
9423;BME280;4750;49.506;10.400;2022-12-05T15:39:25;98217.97;;;3.33;92.17
9423;BME280;4750;49.506;10.400;2022-12-05T15:42:14;98110.75;;;2.58;92.11
9423;BME280;4750;49.506;10.400;2022-12-05T15:50:48;98227.84;;;3.39;92.28
9423;BME280;4750;49.506;10.400;2022-12-05T15:53:39;98170.16;;;3.00;92.38
9423;BME280;4750;49.506;10.400;2022-12-05T15:56:27;98232.88;;;3.35;92.24
9423;BME280;4750;49.506;10.400;2022-12-05T15:59:19;98234.88;;;3.29;92.54
9423;BME280;4750;49.506;10.400;2022-12-05T16:04:57;98247.41;;;3.19;92.62
9423;BME280;4750;49.506;10.400;2022-12-05T16:07:42;98201.38;;;2.84;92.79
9423;BME280;4750;49.506;10.400;2022-12-05T16:10:28;98235.31;;;3.16;92.66
9423;BME280;4750;49.506;10.400;2022-12-05T16:13:14;98235.09;;;3.25;93.25
9423;BME280;4750;49.506;10.400;2022-12-05T16:15:58;98193.78;;;2.84;93.13
9423;BME280;4750;49.506;10.400;2022-12-05T16:18:54;98249.19;;;3.16;93.12
9423;BME280;4750;49.506;10.400;2022-12-05T16:21:45;98238.09;;;3.16;92.84
9423;BME280;4750;49.506;10.400;2022-12-05T16:24:30;98265.06;;;3.16;93.37
9423;BME280;4750;49.506;10.400;2022-12-05T16:27:29;98229.47;;;3.08;93.13
9423;BME280;4750;49.506;10.400;2022-12-05T16:30:21;98220.91;;;3.06;93.82
9423;BME280;4750;49.506;10.400;2022-12-05T16:33:14;98216.59;;;3.05;93.26
9423;BME280;4750;49.506;10.400;2022-12-05T16:36:09;98215.81;;;2.99;93.36
9423;BME280;4750;49.506;10.400;2022-12-05T16:39:11;98252.78;;;3.28;93.44
9423;BME280;4750;49.506;10.400;2022-12-05T16:41:57;98222.38;;;3.02;93.32
9423;BME280;4750;49.506;10.400;2022-12-05T16:50:29;98244.41;;;3.17;93.38
9423;BME280;4750;49.506;10.400;2022-12-05T16:53:19;98223.16;;;3.02;93.47
9423;BME280;4750;49.506;10.400;2022-12-05T16:56:05;98181.41;;;2.74;93.88
9423;BME280;4750;49.506;10.400;2022-12-05T16:58:51;98159.31;;;2.48;93.53
9423;BME280;4750;49.506;10.400;2022-12-05T17:01:35;98114.75;;;2.14;93.50
9423;BME280;4750;49.506;10.400;2022-12-05T17:04:19;98133.19;;;2.22;93.48
9423;BME280;4750;49.506;10.400;2022-12-05T17:07:02;98215.47;;;2.86;93.72
9423;BME280;4750;49.506;10.400;2022-12-05T17:09:47;98096.28;;;1.99;93.56
9423;BME280;4750;49.506;10.400;2022-12-05T17:12:31;98133.47;;;2.24;93.54
9423;BME280;4750;49.506;10.400;2022-12-05T17:15:16;98220.56;;;2.93;93.38
9423;BME280;4750;49.506;10.400;2022-12-05T17:18:11;98206.84;;;2.72;93.81
9423;BME280;4750;49.506;10.400;2022-12-05T17:20:56;98232.13;;;2.86;93.87